sensor_id;sensor_type;location;lat;lon;timestamp;P1;durP1;ratioP1;P2;durP2;ratioP2
3922;SDS011;1976;51.694;6.256;2023-05-16T00:00:17;11.27;;;3.30;;
3922;SDS011;1976;51.694;6.256;2023-05-16T00:02:43;8.63;;;3.00;;
3922;SDS011;1976;51.694;6.256;2023-05-16T00:05:10;9.57;;;3.37;;
3922;SDS011;1976;51.694;6.256;2023-05-16T00:07:38;14.97;;;3.13;;
3922;SDS011;1976;51.694;6.256;2023-05-16T00:10:04;4.83;;;3.00;;
3922;SDS011;1976;51.694;6.256;2023-05-16T00:12:31;10.90;;;3.40;;
3922;SDS011;1976;51.694;6.256;2023-05-16T00:14:57;8.67;;;2.60;;
3922;SDS011;1976;51.694;6.256;2023-05-16T00:17:23;9.33;;;2.67;;
3922;SDS011;1976;51.694;6.256;2023-05-16T00:19:52;18.17;;;2.90;;
3922;SDS011;1976;51.694;6.256;2023-05-16T00:22:22;18.47;;;4.33;;
3922;SDS011;1976;51.694;6.256;2023-05-16T00:24:49;13.67;;;2.50;;
3922;SDS011;1976;51.694;6.256;2023-05-16T00:27:14;10.33;;;3.00;;
3922;SDS011;1976;51.694;6.256;2023-05-16T00:29:40;15.27;;;2.60;;
3922;SDS011;1976;51.694;6.256;2023-05-16T00:32:06;8.23;;;2.77;;
3922;SDS011;1976;51.694;6.256;2023-05-16T00:34:33;11.43;;;3.97;;
3922;SDS011;1976;51.694;6.256;2023-05-16T00:36:59;11.60;;;3.77;;
3922;SDS011;1976;51.694;6.256;2023-05-16T00:39:25;14.03;;;3.07;;
3922;SDS011;1976;51.694;6.256;2023-05-16T00:41:50;26.13;;;6.23;;
3922;SDS011;1976;51.694;6.256;2023-05-16T00:44:17;9.70;;;3.00;;
3922;SDS011;1976;51.694;6.256;2023-05-16T00:46:42;20.10;;;3.60;;
3922;SDS011;1976;51.694;6.256;2023-05-16T00:49:08;12.00;;;2.80;;
3922;SDS011;1976;51.694;6.256;2023-05-16T00:51:35;9.30;;;3.30;;
3922;SDS011;1976;51.694;6.256;2023-05-16T00:54:03;14.77;;;3.90;;
3922;SDS011;1976;51.694;6.256;2023-05-16T00:56:30;14.53;;;2.97;;
3922;SDS011;1976;51.694;6.256;2023-05-16T00:58:56;10.20;;;2.70;;
3922;SDS011;1976;51.694;6.256;2023-05-16T01:01:22;14.53;;;2.60;;
3922;SDS011;1976;51.694;6.256;2023-05-16T01:03:52;10.47;;;3.57;;
3922;SDS011;1976;51.694;6.256;2023-05-16T01:06:19;16.33;;;3.13;;
3922;SDS011;1976;51.694;6.256;2023-05-16T01:08:45;16.93;;;3.57;;
3922;SDS011;1976;51.694;6.256;2023-05-16T01:19:02;7.33;;;2.10;;
3922;SDS011;1976;51.694;6.256;2023-05-16T01:27:40;17.23;;;3.10;;
3922;SDS011;1976;51.694;6.256;2023-05-16T01:30:16;12.97;;;2.60;;
3922;SDS011;1976;51.694;6.256;2023-05-16T01:32:43;10.00;;;2.63;;
3922;SDS011;1976;51.694;6.256;2023-05-16T01:35:11;24.53;;;3.27;;
3922;SDS011;1976;51.694;6.256;2023-05-16T01:37:40;12.57;;;2.53;;
3922;SDS011;1976;51.694;6.256;2023-05-16T01:40:15;13.83;;;2.70;;
3922;SDS011;1976;51.694;6.256;2023-05-16T01:42:54;13.40;;;3.10;;
3922;SDS011;1976;51.694;6.256;2023-05-16T01:45:28;15.90;;;2.93;;
3922;SDS011;1976;51.694;6.256;2023-05-16T01:48:03;13.90;;;3.00;;
3922;SDS011;1976;51.694;6.256;2023-05-16T01:50:44;21.83;;;3.87;;
3922;SDS011;1976;51.694;6.256;2023-05-16T01:53:13;21.70;;;3.10;;
3922;SDS011;1976;51.694;6.256;2023-05-16T01:55:46;13.67;;;3.87;;
3922;SDS011;1976;51.694;6.256;2023-05-16T01:58:15;15.10;;;3.13;;
3922;SDS011;1976;51.694;6.256;2023-05-16T02:00:44;9.83;;;3.20;;
3922;SDS011;1976;51.694;6.256;2023-05-16T02:03:09;8.37;;;3.13;;
3922;SDS011;1976;51.694;6.256;2023-05-16T02:05:35;21.90;;;3.27;;
3922;SDS011;1976;51.694;6.256;2023-05-16T02:08:01;9.50;;;2.10;;
3922;SDS011;1976;51.694;6.256;2023-05-16T02:10:27;29.57;;;3.30;;
3922;SDS011;1976;51.694;6.256;2023-05-16T02:12:53;11.67;;;2.50;;
3922;SDS011;1976;51.694;6.256;2023-05-16T02:15:20;19.07;;;3.10;;
3922;SDS011;1976;51.694;6.256;2023-05-16T02:17:46;15.87;;;3.30;;
3922;SDS011;1976;51.694;6.256;2023-05-16T02:20:12;23.43;;;3.50;;
3922;SDS011;1976;51.694;6.256;2023-05-16T02:22:38;7.03;;;2.23;;
3922;SDS011;1976;51.694;6.256;2023-05-16T02:25:04;15.83;;;2.50;;
3922;SDS011;1976;51.694;6.256;2023-05-16T02:27:30;13.20;;;2.97;;
3922;SDS011;1976;51.694;6.256;2023-05-16T02:29:56;17.67;;;3.20;;
3922;SDS011;1976;51.694;6.256;2023-05-16T02:32:22;20.23;;;2.67;;
3922;SDS011;1976;51.694;6.256;2023-05-16T02:34:48;24.07;;;3.73;;
3922;SDS011;1976;51.694;6.256;2023-05-16T02:37:13;14.63;;;2.70;;
3922;SDS011;1976;51.694;6.256;2023-05-16T02:39:40;7.03;;;2.10;;
3922;SDS011;1976;51.694;6.256;2023-05-16T02:42:05;17.30;;;2.13;;
3922;SDS011;1976;51.694;6.256;2023-05-16T02:44:31;38.03;;;3.30;;
3922;SDS011;1976;51.694;6.256;2023-05-16T02:46:57;19.73;;;2.70;;
3922;SDS011;1976;51.694;6.256;2023-05-16T02:49:23;18.33;;;3.17;;
3922;SDS011;1976;51.694;6.256;2023-05-16T02:51:49;18.80;;;2.80;;
3922;SDS011;1976;51.694;6.256;2023-05-16T02:54:15;12.93;;;2.33;;
3922;SDS011;1976;51.694;6.256;2023-05-16T02:56:41;10.00;;;1.77;;
3922;SDS011;1976;51.694;6.256;2023-05-16T02:59:08;20.37;;;3.03;;
3922;SDS011;1976;51.694;6.256;2023-05-16T03:01:34;13.63;;;2.83;;
3922;SDS011;1976;51.694;6.256;2023-05-16T03:04:00;35.97;;;2.80;;
3922;SDS011;1976;51.694;6.256;2023-05-16T03:06:26;11.87;;;3.10;;
3922;SDS011;1976;51.694;6.256;2023-05-16T03:08:51;7.50;;;2.47;;
3922;SDS011;1976;51.694;6.256;2023-05-16T03:11:17;8.90;;;2.50;;
3922;SDS011;1976;51.694;6.256;2023-05-16T03:13:48;7.07;;;2.00;;
3922;SDS011;1976;51.694;6.256;2023-05-16T03:16:14;12.73;;;2.73;;
3922;SDS011;1976;51.694;6.256;2023-05-16T03:18:40;12.77;;;2.30;;
3922;SDS011;1976;51.694;6.256;2023-05-16T03:21:06;11.40;;;2.63;;
3922;SDS011;1976;51.694;6.256;2023-05-16T03:23:32;12.17;;;2.50;;
3922;SDS011;1976;51.694;6.256;2023-05-16T03:25:58;11.80;;;2.80;;
3922;SDS011;1976;51.694;6.256;2023-05-16T03:28:24;19.93;;;2.57;;
3922;SDS011;1976;51.694;6.256;2023-05-16T03:30:50;17.90;;;3.20;;
3922;SDS011;1976;51.694;6.256;2023-05-16T03:33:16;12.43;;;3.10;;
3922;SDS011;1976;51.694;6.256;2023-05-16T03:35:43;16.93;;;2.40;;
3922;SDS011;1976;51.694;6.256;2023-05-16T03:38:09;17.60;;;2.10;;
3922;SDS011;1976;51.694;6.256;2023-05-16T03:40:35;9.83;;;2.77;;
3922;SDS011;1976;51.694;6.256;2023-05-16T03:43:01;8.37;;;1.93;;
3922;SDS011;1976;51.694;6.256;2023-05-16T03:45:27;14.53;;;2.97;;
3922;SDS011;1976;51.694;6.256;2023-05-16T03:47:56;16.33;;;2.80;;
3922;SDS011;1976;51.694;6.256;2023-05-16T03:50:22;9.13;;;2.10;;
3922;SDS011;1976;51.694;6.256;2023-05-16T03:52:48;12.47;;;3.20;;
3922;SDS011;1976;51.694;6.256;2023-05-16T03:55:14;21.50;;;3.70;;
3922;SDS011;1976;51.694;6.256;2023-05-16T03:57:40;12.40;;;2.40;;
3922;SDS011;1976;51.694;6.256;2023-05-16T04:00:06;24.03;;;2.80;;
3922;SDS011;1976;51.694;6.256;2023-05-16T04:02:33;9.90;;;3.03;;
3922;SDS011;1976;51.694;6.256;2023-05-16T04:04:59;17.03;;;2.43;;
3922;SDS011;1976;51.694;6.256;2023-05-16T04:07:24;10.47;;;3.20;;
3922;SDS011;1976;51.694;6.256;2023-05-16T04:09:52;8.23;;;3.07;;
3922;SDS011;1976;51.694;6.256;2023-05-16T04:12:18;20.00;;;2.70;;
3922;SDS011;1976;51.694;6.256;2023-05-16T04:14:44;11.87;;;2.23;;
3922;SDS011;1976;51.694;6.256;2023-05-16T04:17:09;15.63;;;2.43;;
3922;SDS011;1976;51.694;6.256;2023-05-16T04:19:36;11.00;;;2.47;;
3922;SDS011;1976;51.694;6.256;2023-05-16T04:22:02;10.77;;;2.43;;
3922;SDS011;1976;51.694;6.256;2023-05-16T04:24:27;11.80;;;2.73;;
3922;SDS011;1976;51.694;6.256;2023-05-16T04:26:53;11.30;;;2.40;;
3922;SDS011;1976;51.694;6.256;2023-05-16T04:29:19;10.93;;;2.90;;
3922;SDS011;1976;51.694;6.256;2023-05-16T04:31:46;12.70;;;2.57;;
3922;SDS011;1976;51.694;6.256;2023-05-16T04:34:12;10.83;;;3.37;;
3922;SDS011;1976;51.694;6.256;2023-05-16T04:36:40;16.90;;;3.20;;
3922;SDS011;1976;51.694;6.256;2023-05-16T04:39:06;7.70;;;4.20;;
3922;SDS011;1976;51.694;6.256;2023-05-16T04:41:34;10.40;;;2.10;;
3922;SDS011;1976;51.694;6.256;2023-05-16T04:44:00;8.90;;;2.70;;
3922;SDS011;1976;51.694;6.256;2023-05-16T04:46:28;10.40;;;3.03;;
3922;SDS011;1976;51.694;6.256;2023-05-16T04:48:54;4.90;;;2.10;;
3922;SDS011;1976;51.694;6.256;2023-05-16T04:51:20;18.10;;;2.60;;
3922;SDS011;1976;51.694;6.256;2023-05-16T04:53:46;19.50;;;3.17;;
3922;SDS011;1976;51.694;6.256;2023-05-16T04:56:11;21.40;;;3.30;;
3922;SDS011;1976;51.694;6.256;2023-05-16T04:58:37;5.17;;;2.90;;
3922;SDS011;1976;51.694;6.256;2023-05-16T05:01:03;9.47;;;3.00;;
3922;SDS011;1976;51.694;6.256;2023-05-16T05:03:29;26.60;;;2.80;;
3922;SDS011;1976;51.694;6.256;2023-05-16T05:05:54;7.63;;;2.73;;
3922;SDS011;1976;51.694;6.256;2023-05-16T05:08:20;5.70;;;2.50;;
3922;SDS011;1976;51.694;6.256;2023-05-16T05:10:46;8.80;;;2.70;;
3922;SDS011;1976;51.694;6.256;2023-05-16T05:13:12;16.27;;;2.70;;
3922;SDS011;1976;51.694;6.256;2023-05-16T05:15:38;8.20;;;2.53;;
3922;SDS011;1976;51.694;6.256;2023-05-16T05:18:03;26.60;;;3.30;;
3922;SDS011;1976;51.694;6.256;2023-05-16T05:20:29;23.83;;;4.10;;
3922;SDS011;1976;51.694;6.256;2023-05-16T05:22:55;9.00;;;2.40;;
3922;SDS011;1976;51.694;6.256;2023-05-16T05:25:20;6.43;;;2.20;;
3922;SDS011;1976;51.694;6.256;2023-05-16T05:27:47;5.97;;;2.37;;
3922;SDS011;1976;51.694;6.256;2023-05-16T05:30:12;24.47;;;4.13;;
3922;SDS011;1976;51.694;6.256;2023-05-16T05:32:38;10.97;;;2.83;;
3922;SDS011;1976;51.694;6.256;2023-05-16T05:35:04;15.83;;;4.47;;
3922;SDS011;1976;51.694;6.256;2023-05-16T05:37:30;13.83;;;2.57;;
3922;SDS011;1976;51.694;6.256;2023-05-16T05:39:56;19.20;;;3.60;;
3922;SDS011;1976;51.694;6.256;2023-05-16T05:42:22;12.23;;;2.53;;
3922;SDS011;1976;51.694;6.256;2023-05-16T05:44:47;21.33;;;2.30;;
3922;SDS011;1976;51.694;6.256;2023-05-16T05:47:13;17.40;;;2.90;;
3922;SDS011;1976;51.694;6.256;2023-05-16T05:49:39;7.70;;;2.37;;
3922;SDS011;1976;51.694;6.256;2023-05-16T05:52:05;9.03;;;2.50;;
3922;SDS011;1976;51.694;6.256;2023-05-16T05:54:31;17.13;;;2.77;;
3922;SDS011;1976;51.694;6.256;2023-05-16T05:56:57;18.53;;;2.90;;
3922;SDS011;1976;51.694;6.256;2023-05-16T05:59:23;15.33;;;3.70;;
3922;SDS011;1976;51.694;6.256;2023-05-16T06:01:49;15.30;;;2.63;;
3922;SDS011;1976;51.694;6.256;2023-05-16T06:04:17;16.00;;;3.60;;
3922;SDS011;1976;51.694;6.256;2023-05-16T06:06:44;7.60;;;2.20;;
3922;SDS011;1976;51.694;6.256;2023-05-16T06:09:10;12.00;;;2.50;;
3922;SDS011;1976;51.694;6.256;2023-05-16T06:11:37;22.27;;;3.03;;
3922;SDS011;1976;51.694;6.256;2023-05-16T06:14:03;15.37;;;3.37;;
3922;SDS011;1976;51.694;6.256;2023-05-16T06:16:29;9.10;;;3.13;;
3922;SDS011;1976;51.694;6.256;2023-05-16T06:18:55;19.07;;;3.30;;
3922;SDS011;1976;51.694;6.256;2023-05-16T06:21:20;14.37;;;2.37;;
3922;SDS011;1976;51.694;6.256;2023-05-16T06:23:46;12.30;;;2.60;;
3922;SDS011;1976;51.694;6.256;2023-05-16T06:26:12;21.83;;;2.47;;
3922;SDS011;1976;51.694;6.256;2023-05-16T06:28:37;5.77;;;2.53;;
3922;SDS011;1976;51.694;6.256;2023-05-16T06:31:03;8.33;;;1.90;;
3922;SDS011;1976;51.694;6.256;2023-05-16T06:33:28;13.13;;;2.50;;
3922;SDS011;1976;51.694;6.256;2023-05-16T06:35:54;13.40;;;3.30;;
3922;SDS011;1976;51.694;6.256;2023-05-16T06:38:20;19.60;;;2.60;;
3922;SDS011;1976;51.694;6.256;2023-05-16T06:40:45;8.30;;;2.13;;
3922;SDS011;1976;51.694;6.256;2023-05-16T06:43:11;11.27;;;2.40;;
3922;SDS011;1976;51.694;6.256;2023-05-16T06:45:37;9.27;;;2.47;;
3922;SDS011;1976;51.694;6.256;2023-05-16T06:48:06;13.07;;;2.60;;
3922;SDS011;1976;51.694;6.256;2023-05-16T06:50:32;10.33;;;2.43;;
3922;SDS011;1976;51.694;6.256;2023-05-16T06:52:59;11.33;;;2.93;;
3922;SDS011;1976;51.694;6.256;2023-05-16T06:55:25;5.57;;;2.53;;
3922;SDS011;1976;51.694;6.256;2023-05-16T06:57:51;9.63;;;2.00;;
3922;SDS011;1976;51.694;6.256;2023-05-16T07:00:17;10.73;;;3.00;;
3922;SDS011;1976;51.694;6.256;2023-05-16T07:02:43;11.27;;;3.30;;
3922;SDS011;1976;51.694;6.256;2023-05-16T07:05:08;9.20;;;2.50;;
3922;SDS011;1976;51.694;6.256;2023-05-16T07:07:34;10.50;;;2.00;;
3922;SDS011;1976;51.694;6.256;2023-05-16T07:10:00;11.77;;;2.40;;
3922;SDS011;1976;51.694;6.256;2023-05-16T07:12:26;6.80;;;1.80;;
3922;SDS011;1976;51.694;6.256;2023-05-16T07:14:51;22.03;;;2.37;;
3922;SDS011;1976;51.694;6.256;2023-05-16T07:17:17;9.67;;;2.93;;
3922;SDS011;1976;51.694;6.256;2023-05-16T07:19:43;9.47;;;2.40;;
3922;SDS011;1976;51.694;6.256;2023-05-16T07:22:08;15.93;;;2.97;;
3922;SDS011;1976;51.694;6.256;2023-05-16T07:24:36;37.47;;;3.03;;
3922;SDS011;1976;51.694;6.256;2023-05-16T07:27:01;6.93;;;2.30;;
3922;SDS011;1976;51.694;6.256;2023-05-16T07:29:27;8.13;;;2.40;;
3922;SDS011;1976;51.694;6.256;2023-05-16T07:31:54;14.67;;;2.93;;
3922;SDS011;1976;51.694;6.256;2023-05-16T07:34:20;6.47;;;1.80;;
3922;SDS011;1976;51.694;6.256;2023-05-16T07:36:46;12.93;;;2.03;;
3922;SDS011;1976;51.694;6.256;2023-05-16T07:39:12;7.30;;;2.17;;
3922;SDS011;1976;51.694;6.256;2023-05-16T07:41:38;6.90;;;1.83;;
3922;SDS011;1976;51.694;6.256;2023-05-16T07:44:04;17.43;;;2.20;;
3922;SDS011;1976;51.694;6.256;2023-05-16T07:46:29;6.43;;;2.20;;
3922;SDS011;1976;51.694;6.256;2023-05-16T07:48:55;18.30;;;2.60;;
3922;SDS011;1976;51.694;6.256;2023-05-16T07:51:21;10.23;;;3.13;;
3922;SDS011;1976;51.694;6.256;2023-05-16T07:53:46;15.00;;;2.20;;
3922;SDS011;1976;51.694;6.256;2023-05-16T07:56:12;6.37;;;2.20;;
3922;SDS011;1976;51.694;6.256;2023-05-16T07:58:38;5.80;;;2.40;;
3922;SDS011;1976;51.694;6.256;2023-05-16T08:01:03;8.57;;;2.30;;
3922;SDS011;1976;51.694;6.256;2023-05-16T08:03:29;5.40;;;2.27;;
3922;SDS011;1976;51.694;6.256;2023-05-16T08:05:55;12.73;;;2.70;;
3922;SDS011;1976;51.694;6.256;2023-05-16T08:08:21;7.33;;;1.83;;
3922;SDS011;1976;51.694;6.256;2023-05-16T08:10:46;16.00;;;3.23;;
3922;SDS011;1976;51.694;6.256;2023-05-16T08:13:12;5.50;;;2.30;;
3922;SDS011;1976;51.694;6.256;2023-05-16T08:15:38;12.90;;;1.80;;
3922;SDS011;1976;51.694;6.256;2023-05-16T08:18:03;8.63;;;2.90;;
3922;SDS011;1976;51.694;6.256;2023-05-16T08:20:38;10.03;;;2.77;;
3922;SDS011;1976;51.694;6.256;2023-05-16T08:23:03;7.30;;;1.70;;
3922;SDS011;1976;51.694;6.256;2023-05-16T08:25:29;19.07;;;1.73;;
3922;SDS011;1976;51.694;6.256;2023-05-16T08:27:55;11.07;;;3.33;;
3922;SDS011;1976;51.694;6.256;2023-05-16T08:30:21;8.77;;;2.27;;
3922;SDS011;1976;51.694;6.256;2023-05-16T08:32:47;4.87;;;1.57;;
3922;SDS011;1976;51.694;6.256;2023-05-16T08:35:12;7.67;;;2.00;;
3922;SDS011;1976;51.694;6.256;2023-05-16T08:37:38;7.80;;;1.47;;
3922;SDS011;1976;51.694;6.256;2023-05-16T08:40:05;15.13;;;2.40;;
3922;SDS011;1976;51.694;6.256;2023-05-16T08:42:34;15.97;;;1.80;;
3922;SDS011;1976;51.694;6.256;2023-05-16T08:45:00;10.70;;;1.80;;
3922;SDS011;1976;51.694;6.256;2023-05-16T08:47:27;4.90;;;1.30;;
3922;SDS011;1976;51.694;6.256;2023-05-16T08:49:55;9.63;;;3.40;;
3922;SDS011;1976;51.694;6.256;2023-05-16T08:52:23;12.27;;;2.20;;
3922;SDS011;1976;51.694;6.256;2023-05-16T08:54:53;8.20;;;2.13;;
3922;SDS011;1976;51.694;6.256;2023-05-16T08:57:26;8.63;;;2.07;;
3922;SDS011;1976;51.694;6.256;2023-05-16T08:59:52;12.73;;;1.93;;
3922;SDS011;1976;51.694;6.256;2023-05-16T09:02:21;6.43;;;2.10;;
3922;SDS011;1976;51.694;6.256;2023-05-16T09:04:47;8.57;;;2.13;;
3922;SDS011;1976;51.694;6.256;2023-05-16T09:07:13;2.53;;;1.30;;
3922;SDS011;1976;51.694;6.256;2023-05-16T09:09:40;3.93;;;1.40;;
3922;SDS011;1976;51.694;6.256;2023-05-16T09:12:06;6.10;;;1.80;;
3922;SDS011;1976;51.694;6.256;2023-05-16T09:14:32;5.33;;;1.70;;
3922;SDS011;1976;51.694;6.256;2023-05-16T09:17:07;3.70;;;1.27;;
3922;SDS011;1976;51.694;6.256;2023-05-16T09:19:37;3.30;;;1.07;;
3922;SDS011;1976;51.694;6.256;2023-05-16T09:22:04;2.73;;;1.60;;
3922;SDS011;1976;51.694;6.256;2023-05-16T09:24:36;2.17;;;1.20;;
3922;SDS011;1976;51.694;6.256;2023-05-16T09:27:10;9.73;;;2.13;;
3922;SDS011;1976;51.694;6.256;2023-05-16T09:29:39;7.10;;;1.63;;
3922;SDS011;1976;51.694;6.256;2023-05-16T09:34:37;3.70;;;1.60;;
3922;SDS011;1976;51.694;6.256;2023-05-16T09:37:19;8.80;;;1.40;;
3922;SDS011;1976;51.694;6.256;2023-05-16T09:39:45;7.80;;;1.47;;
3922;SDS011;1976;51.694;6.256;2023-05-16T09:42:13;6.77;;;2.03;;
3922;SDS011;1976;51.694;6.256;2023-05-16T09:44:39;10.87;;;2.10;;
3922;SDS011;1976;51.694;6.256;2023-05-16T09:47:05;2.57;;;1.40;;
3922;SDS011;1976;51.694;6.256;2023-05-16T09:49:31;2.50;;;1.00;;
3922;SDS011;1976;51.694;6.256;2023-05-16T09:52:03;2.93;;;1.20;;
3922;SDS011;1976;51.694;6.256;2023-05-16T09:54:33;6.27;;;1.70;;
3922;SDS011;1976;51.694;6.256;2023-05-16T09:56:59;6.43;;;0.90;;
3922;SDS011;1976;51.694;6.256;2023-05-16T09:59:28;2.00;;;1.10;;
3922;SDS011;1976;51.694;6.256;2023-05-16T10:02:04;1.20;;;0.87;;
3922;SDS011;1976;51.694;6.256;2023-05-16T10:04:32;3.20;;;1.10;;
3922;SDS011;1976;51.694;6.256;2023-05-16T10:07:02;12.43;;;1.37;;
3922;SDS011;1976;51.694;6.256;2023-05-16T10:09:29;11.60;;;0.90;;
3922;SDS011;1976;51.694;6.256;2023-05-16T10:12:00;1.30;;;0.90;;
3922;SDS011;1976;51.694;6.256;2023-05-16T10:14:28;0.90;;;0.60;;
3922;SDS011;1976;51.694;6.256;2023-05-16T10:16:57;2.73;;;1.10;;
3922;SDS011;1976;51.694;6.256;2023-05-16T10:19:25;2.40;;;1.03;;
3922;SDS011;1976;51.694;6.256;2023-05-16T10:21:52;2.90;;;0.73;;
3922;SDS011;1976;51.694;6.256;2023-05-16T10:24:25;1.00;;;0.90;;
3922;SDS011;1976;51.694;6.256;2023-05-16T10:27:00;0.70;;;0.70;;
3922;SDS011;1976;51.694;6.256;2023-05-16T10:29:27;3.20;;;1.00;;
3922;SDS011;1976;51.694;6.256;2023-05-16T10:31:54;5.40;;;1.30;;
3922;SDS011;1976;51.694;6.256;2023-05-16T10:34:22;1.83;;;0.90;;
3922;SDS011;1976;51.694;6.256;2023-05-16T10:36:47;1.90;;;0.90;;
3922;SDS011;1976;51.694;6.256;2023-05-16T10:39:14;1.30;;;0.80;;
3922;SDS011;1976;51.694;6.256;2023-05-16T10:41:41;4.13;;;1.00;;
3922;SDS011;1976;51.694;6.256;2023-05-16T10:44:12;2.40;;;0.90;;
3922;SDS011;1976;51.694;6.256;2023-05-16T10:46:38;1.43;;;1.17;;
3922;SDS011;1976;51.694;6.256;2023-05-16T10:51:46;1.87;;;0.87;;
3922;SDS011;1976;51.694;6.256;2023-05-16T10:54:14;2.77;;;1.00;;
3922;SDS011;1976;51.694;6.256;2023-05-16T10:56:42;3.07;;;1.17;;
3922;SDS011;1976;51.694;6.256;2023-05-16T10:59:29;2.70;;;1.17;;
3922;SDS011;1976;51.694;6.256;2023-05-16T11:01:54;1.23;;;0.70;;
3922;SDS011;1976;51.694;6.256;2023-05-16T11:04:20;2.00;;;1.10;;
3922;SDS011;1976;51.694;6.256;2023-05-16T11:06:50;4.73;;;1.00;;
3922;SDS011;1976;51.694;6.256;2023-05-16T11:09:26;4.53;;;0.90;;
3922;SDS011;1976;51.694;6.256;2023-05-16T11:11:56;2.20;;;0.87;;
3922;SDS011;1976;51.694;6.256;2023-05-16T11:17:06;3.27;;;0.90;;
3922;SDS011;1976;51.694;6.256;2023-05-16T11:24:48;8.23;;;1.23;;
3922;SDS011;1976;51.694;6.256;2023-05-16T11:29:55;6.73;;;1.57;;
3922;SDS011;1976;51.694;6.256;2023-05-16T11:32:24;0.90;;;0.80;;
3922;SDS011;1976;51.694;6.256;2023-05-16T11:34:50;2.57;;;1.27;;
3922;SDS011;1976;51.694;6.256;2023-05-16T11:37:16;2.30;;;1.07;;
3922;SDS011;1976;51.694;6.256;2023-05-16T11:39:44;2.53;;;1.10;;
3922;SDS011;1976;51.694;6.256;2023-05-16T11:42:10;7.67;;;0.97;;
3922;SDS011;1976;51.694;6.256;2023-05-16T11:44:37;2.77;;;1.20;;
3922;SDS011;1976;51.694;6.256;2023-05-16T11:47:04;7.67;;;1.10;;
3922;SDS011;1976;51.694;6.256;2023-05-16T11:49:30;5.87;;;1.07;;
3922;SDS011;1976;51.694;6.256;2023-05-16T11:51:56;8.80;;;1.40;;
3922;SDS011;1976;51.694;6.256;2023-05-16T11:54:22;1.30;;;0.90;;
3922;SDS011;1976;51.694;6.256;2023-05-16T11:56:49;5.30;;;1.30;;
3922;SDS011;1976;51.694;6.256;2023-05-16T11:59:18;3.07;;;1.27;;
3922;SDS011;1976;51.694;6.256;2023-05-16T12:01:44;1.70;;;0.87;;
3922;SDS011;1976;51.694;6.256;2023-05-16T12:04:13;0.70;;;0.70;;
3922;SDS011;1976;51.694;6.256;2023-05-16T12:06:40;3.03;;;1.10;;
3922;SDS011;1976;51.694;6.256;2023-05-16T12:09:11;2.17;;;1.33;;
3922;SDS011;1976;51.694;6.256;2023-05-16T12:11:42;2.50;;;1.27;;
3922;SDS011;1976;51.694;6.256;2023-05-16T12:14:09;8.60;;;1.13;;
3922;SDS011;1976;51.694;6.256;2023-05-16T12:16:37;4.53;;;1.27;;
3922;SDS011;1976;51.694;6.256;2023-05-16T12:19:06;7.47;;;1.30;;
3922;SDS011;1976;51.694;6.256;2023-05-16T12:21:33;2.70;;;1.03;;
3922;SDS011;1976;51.694;6.256;2023-05-16T12:24:00;4.53;;;1.47;;
3922;SDS011;1976;51.694;6.256;2023-05-16T12:26:27;3.30;;;1.63;;
3922;SDS011;1976;51.694;6.256;2023-05-16T12:29:00;2.10;;;1.00;;
3922;SDS011;1976;51.694;6.256;2023-05-16T12:31:29;3.23;;;1.20;;
3922;SDS011;1976;51.694;6.256;2023-05-16T12:34:02;5.20;;;1.50;;
3922;SDS011;1976;51.694;6.256;2023-05-16T12:36:30;4.50;;;1.20;;
3922;SDS011;1976;51.694;6.256;2023-05-16T12:39:01;5.60;;;1.10;;
3922;SDS011;1976;51.694;6.256;2023-05-16T12:41:28;2.60;;;1.33;;
3922;SDS011;1976;51.694;6.256;2023-05-16T12:44:05;2.20;;;1.07;;
3922;SDS011;1976;51.694;6.256;2023-05-16T12:46:49;2.00;;;1.30;;
3922;SDS011;1976;51.694;6.256;2023-05-16T12:49:22;6.10;;;1.10;;
3922;SDS011;1976;51.694;6.256;2023-05-16T12:51:49;10.23;;;2.03;;
3922;SDS011;1976;51.694;6.256;2023-05-16T12:54:16;2.13;;;1.40;;
3922;SDS011;1976;51.694;6.256;2023-05-16T12:56:42;1.83;;;1.20;;
3922;SDS011;1976;51.694;6.256;2023-05-16T12:59:08;2.50;;;1.30;;
3922;SDS011;1976;51.694;6.256;2023-05-16T13:01:36;10.80;;;2.70;;
3922;SDS011;1976;51.694;6.256;2023-05-16T13:04:02;2.20;;;1.60;;
3922;SDS011;1976;51.694;6.256;2023-05-16T13:06:28;4.00;;;1.50;;
3922;SDS011;1976;51.694;6.256;2023-05-16T13:08:54;2.87;;;1.63;;
3922;SDS011;1976;51.694;6.256;2023-05-16T13:11:20;3.77;;;1.60;;
3922;SDS011;1976;51.694;6.256;2023-05-16T13:13:46;12.80;;;1.60;;
3922;SDS011;1976;51.694;6.256;2023-05-16T13:16:11;2.77;;;1.87;;
3922;SDS011;1976;51.694;6.256;2023-05-16T13:18:37;19.17;;;2.50;;
3922;SDS011;1976;51.694;6.256;2023-05-16T13:21:03;3.03;;;1.70;;
3922;SDS011;1976;51.694;6.256;2023-05-16T13:23:29;3.63;;;1.60;;
3922;SDS011;1976;51.694;6.256;2023-05-16T13:25:55;2.13;;;1.10;;
3922;SDS011;1976;51.694;6.256;2023-05-16T13:28:20;3.53;;;1.60;;
3922;SDS011;1976;51.694;6.256;2023-05-16T13:30:46;3.07;;;1.23;;
3922;SDS011;1976;51.694;6.256;2023-05-16T13:33:12;12.67;;;1.83;;
3922;SDS011;1976;51.694;6.256;2023-05-16T13:35:37;4.47;;;1.60;;
3922;SDS011;1976;51.694;6.256;2023-05-16T13:38:03;3.53;;;1.50;;
3922;SDS011;1976;51.694;6.256;2023-05-16T13:40:29;9.17;;;1.87;;
3922;SDS011;1976;51.694;6.256;2023-05-16T13:42:55;6.30;;;2.60;;
3922;SDS011;1976;51.694;6.256;2023-05-16T13:45:21;2.83;;;1.50;;
3922;SDS011;1976;51.694;6.256;2023-05-16T13:47:46;7.40;;;1.77;;
3922;SDS011;1976;51.694;6.256;2023-05-16T13:50:12;5.20;;;1.93;;
3922;SDS011;1976;51.694;6.256;2023-05-16T13:52:38;7.70;;;1.60;;
3922;SDS011;1976;51.694;6.256;2023-05-16T13:55:04;2.80;;;1.47;;
3922;SDS011;1976;51.694;6.256;2023-05-16T13:57:31;4.10;;;1.70;;
3922;SDS011;1976;51.694;6.256;2023-05-16T13:59:57;3.20;;;1.40;;
3922;SDS011;1976;51.694;6.256;2023-05-16T14:02:23;3.37;;;1.37;;
3922;SDS011;1976;51.694;6.256;2023-05-16T14:04:50;5.27;;;1.83;;
3922;SDS011;1976;51.694;6.256;2023-05-16T14:07:16;7.50;;;1.77;;
3922;SDS011;1976;51.694;6.256;2023-05-16T14:09:42;2.13;;;1.17;;
3922;SDS011;1976;51.694;6.256;2023-05-16T14:12:09;4.57;;;1.70;;
3922;SDS011;1976;51.694;6.256;2023-05-16T14:14:35;2.70;;;1.17;;
3922;SDS011;1976;51.694;6.256;2023-05-16T14:17:01;1.77;;;1.00;;
3922;SDS011;1976;51.694;6.256;2023-05-16T14:19:28;6.13;;;1.50;;
3922;SDS011;1976;51.694;6.256;2023-05-16T14:21:54;6.97;;;2.03;;
3922;SDS011;1976;51.694;6.256;2023-05-16T14:24:19;7.60;;;1.70;;
3922;SDS011;1976;51.694;6.256;2023-05-16T14:26:45;3.17;;;1.53;;
3922;SDS011;1976;51.694;6.256;2023-05-16T14:29:11;6.30;;;1.30;;
3922;SDS011;1976;51.694;6.256;2023-05-16T14:31:37;2.47;;;1.33;;
3922;SDS011;1976;51.694;6.256;2023-05-16T14:34:03;20.50;;;1.60;;
3922;SDS011;1976;51.694;6.256;2023-05-16T14:36:29;3.63;;;1.50;;
3922;SDS011;1976;51.694;6.256;2023-05-16T14:38:55;4.30;;;1.23;;
3922;SDS011;1976;51.694;6.256;2023-05-16T14:41:21;7.00;;;1.90;;
3922;SDS011;1976;51.694;6.256;2023-05-16T14:43:47;3.53;;;1.20;;
3922;SDS011;1976;51.694;6.256;2023-05-16T14:46:13;4.83;;;1.67;;
3922;SDS011;1976;51.694;6.256;2023-05-16T14:48:39;6.90;;;1.73;;
3922;SDS011;1976;51.694;6.256;2023-05-16T14:51:05;7.33;;;2.10;;
3922;SDS011;1976;51.694;6.256;2023-05-16T14:53:30;4.10;;;1.33;;
3922;SDS011;1976;51.694;6.256;2023-05-16T14:55:57;3.93;;;2.00;;
3922;SDS011;1976;51.694;6.256;2023-05-16T14:58:22;5.83;;;2.07;;
3922;SDS011;1976;51.694;6.256;2023-05-16T15:00:48;2.73;;;1.70;;
3922;SDS011;1976;51.694;6.256;2023-05-16T15:03:17;9.30;;;1.83;;
3922;SDS011;1976;51.694;6.256;2023-05-16T15:05:43;6.97;;;1.60;;
3922;SDS011;1976;51.694;6.256;2023-05-16T15:08:09;18.53;;;2.20;;
3922;SDS011;1976;51.694;6.256;2023-05-16T15:10:35;6.37;;;1.87;;
3922;SDS011;1976;51.694;6.256;2023-05-16T15:13:00;11.57;;;2.40;;
3922;SDS011;1976;51.694;6.256;2023-05-16T15:15:26;6.50;;;1.70;;
3922;SDS011;1976;51.694;6.256;2023-05-16T15:17:52;3.00;;;1.93;;
3922;SDS011;1976;51.694;6.256;2023-05-16T15:20:19;7.53;;;1.80;;
3922;SDS011;1976;51.694;6.256;2023-05-16T15:22:44;9.10;;;1.90;;
3922;SDS011;1976;51.694;6.256;2023-05-16T15:25:12;5.93;;;1.97;;
3922;SDS011;1976;51.694;6.256;2023-05-16T15:27:38;5.17;;;2.20;;
3922;SDS011;1976;51.694;6.256;2023-05-16T15:30:04;8.60;;;1.57;;
3922;SDS011;1976;51.694;6.256;2023-05-16T15:32:30;5.23;;;1.97;;
3922;SDS011;1976;51.694;6.256;2023-05-16T15:34:56;2.97;;;1.33;;
3922;SDS011;1976;51.694;6.256;2023-05-16T15:37:21;3.03;;;1.40;;